createdAt,value
2022-09-24T00:03:01.058Z,9.79
2022-09-24T00:07:02.460Z,9.58
2022-09-24T00:11:06.572Z,9.68
2022-09-24T00:15:08.477Z,9.58
2022-09-24T00:19:11.616Z,9.69
2022-09-24T00:23:13.283Z,9.69
2022-09-24T00:27:14.777Z,9.89
2022-09-24T00:31:16.371Z,9.66
2022-09-24T00:35:18.843Z,9.58
2022-09-24T00:39:20.342Z,9.50
2022-09-24T00:43:30.915Z,9.46
2022-09-24T00:47:52.750Z,9.52
2022-09-24T00:51:54.514Z,9.40
2022-09-24T00:55:56.543Z,9.43
2022-09-24T00:59:58.121Z,9.55
2022-09-24T01:04:01.461Z,9.02
2022-09-24T01:08:04.042Z,9.21
2022-09-24T01:12:21.076Z,9.42
2022-09-24T01:16:36.416Z,9.30
2022-09-24T01:20:54.144Z,9.37
2022-09-24T01:25:30.828Z,9.38
2022-09-24T01:29:52.442Z,9.56
2022-09-24T01:33:57.594Z,9.38
2022-09-24T01:38:03.826Z,9.47
2022-09-24T01:42:06.900Z,9.39
2022-09-24T01:46:10.332Z,9.45
2022-09-24T01:50:19.063Z,9.52
2022-09-24T01:54:35.942Z,9.42
2022-09-24T01:59:02.840Z,9.19
2022-09-24T02:03:19.251Z,9.52
2022-09-24T02:07:27.195Z,9.62
2022-09-24T02:11:31.601Z,9.56
2022-09-24T02:15:37.581Z,9.53
2022-09-24T02:19:41.825Z,9.71
2022-09-24T02:23:51.110Z,9.68
2022-09-24T02:27:53.528Z,9.77
2022-09-24T02:31:58.146Z,9.76
2022-09-24T02:36:00.029Z,9.45
2022-09-24T02:40:03.069Z,9.46
2022-09-24T02:44:05.762Z,9.27
2022-09-24T02:48:07.861Z,9.16
2022-09-24T02:52:10.420Z,9.45
2022-09-24T02:56:11.923Z,9.54
2022-09-24T03:00:14.043Z,9.36
2022-09-24T03:04:16.482Z,9.73
2022-09-24T03:08:18.704Z,9.51
2022-09-24T03:12:20.182Z,9.51
2022-09-24T03:16:21.699Z,9.79
2022-09-24T03:20:24.253Z,9.75
2022-09-24T03:24:25.868Z,9.84
2022-09-24T03:28:27.982Z,9.91
2022-09-24T03:32:29.978Z,9.54
2022-09-24T03:36:31.526Z,9.67
2022-09-24T03:40:33.118Z,9.64
2022-09-24T03:44:34.720Z,9.87
2022-09-24T03:48:38.503Z,9.55
2022-09-24T03:52:40.099Z,9.30
2022-09-24T03:56:41.698Z,9.65
2022-09-24T04:00:43.527Z,9.31
2022-09-24T04:04:44.983Z,9.23
2022-09-24T04:08:46.456Z,9.29
2022-09-24T04:12:47.913Z,9.11
2022-09-24T04:16:49.372Z,9.04
2022-09-24T04:20:50.790Z,9.03
2022-09-24T04:24:52.588Z,9.04
2022-09-24T04:28:54.086Z,8.84
2022-09-24T04:32:56.097Z,8.91
2022-09-24T04:36:57.514Z,9.12
2022-09-24T04:41:07.311Z,9.42
2022-09-24T04:45:10.374Z,9.00
2022-09-24T04:49:11.926Z,9.08
2022-09-24T04:53:14.247Z,9.24
2022-09-24T04:57:16.323Z,8.84
2022-09-24T05:01:18.434Z,8.94
2022-09-24T05:05:19.835Z,8.98
2022-09-24T05:09:21.217Z,9.05
2022-09-24T05:13:22.729Z,8.97
2022-09-24T05:17:24.105Z,9.22
2022-09-24T05:21:25.852Z,9.07
2022-09-24T05:25:27.234Z,9.40
2022-09-24T05:29:28.654Z,9.71
2022-09-24T05:33:30.096Z,9.38
2022-09-24T05:37:31.513Z,9.73
2022-09-24T05:41:32.893Z,9.63
2022-09-24T05:45:34.359Z,9.77
2022-09-24T05:49:35.774Z,10.00
2022-09-24T05:53:37.206Z,9.73
2022-09-24T05:57:38.844Z,9.81
2022-09-24T06:01:40.688Z,9.90
2022-09-24T06:05:46.977Z,9.95
2022-09-24T06:09:49.020Z,9.74
2022-09-24T06:13:51.271Z,9.74
2022-09-24T06:17:55.845Z,9.98
2022-09-24T06:21:57.467Z,9.74
2022-09-24T06:25:58.907Z,9.83
2022-09-24T06:30:00.355Z,9.89
2022-09-24T06:34:02.818Z,9.71
2022-09-24T06:38:05.910Z,9.89
2022-09-24T06:42:07.782Z,10.12
2022-09-24T06:46:10.394Z,10.50
2022-09-24T06:50:12.056Z,10.79
2022-09-24T06:54:13.621Z,11.06
2022-09-24T06:58:20.406Z,11.05
2022-09-24T07:02:21.976Z,11.04
2022-09-24T07:06:23.616Z,10.68
2022-09-24T07:10:27.739Z,10.94
2022-09-24T07:14:29.352Z,11.16
2022-09-24T07:18:32.290Z,11.10
2022-09-24T07:22:38.951Z,10.93
2022-09-24T07:26:40.437Z,11.00
2022-09-24T07:30:42.097Z,10.85
2022-09-24T07:34:43.510Z,10.94
2022-09-24T07:38:45.013Z,11.03
2022-09-24T07:42:48.334Z,11.57
2022-09-24T07:46:51.337Z,11.80
2022-09-24T07:50:52.764Z,12.11
2022-09-24T07:54:55.452Z,11.97
2022-09-24T07:58:56.819Z,12.14
2022-09-24T08:03:02.736Z,12.13
2022-09-24T08:07:04.379Z,12.14
2022-09-24T08:11:07.992Z,12.19
2022-09-24T08:15:09.785Z,12.16
2022-09-24T08:19:14.034Z,12.48
2022-09-24T08:23:16.111Z,12.19
2022-09-24T08:27:17.779Z,12.69
2022-09-24T08:31:19.874Z,12.96
2022-09-24T08:35:21.364Z,12.94
2022-09-24T08:39:22.736Z,13.31
2022-09-24T08:43:54.905Z,13.91
2022-09-24T08:48:21.323Z,14.33
2022-09-24T08:52:28.857Z,14.32
2022-09-24T08:56:35.468Z,14.71
2022-09-24T09:00:47.032Z,14.36
2022-09-24T09:04:57.956Z,14.56
2022-09-24T09:09:09.531Z,14.26
2022-09-24T09:13:17.937Z,14.47
2022-09-24T09:17:22.347Z,14.34
2022-09-24T09:21:34.698Z,14.21
2022-09-24T09:25:36.879Z,14.29
2022-09-24T09:29:38.412Z,14.00
2022-09-24T09:34:00.667Z,14.13
2022-09-24T09:38:23.942Z,14.34
2022-09-24T09:42:38.849Z,14.47
2022-09-24T09:46:46.654Z,14.78
2022-09-24T09:50:50.820Z,14.66
2022-09-24T09:54:52.361Z,14.65
2022-09-24T09:59:06.776Z,14.55
2022-09-24T10:03:27.053Z,14.17
2022-09-24T10:07:28.746Z,14.33
2022-09-24T10:11:30.196Z,14.33
2022-09-24T10:15:31.669Z,14.53
2022-09-24T10:19:36.661Z,14.14
2022-09-24T10:23:41.930Z,14.67
2022-09-24T10:27:43.450Z,14.68
2022-09-24T10:31:45.705Z,15.05
2022-09-24T10:35:47.905Z,15.21
2022-09-24T10:40:13.416Z,15.30
2022-09-24T10:44:16.165Z,15.33
2022-09-24T10:48:34.586Z,15.60
2022-09-24T10:52:51.253Z,15.67
2022-09-24T10:56:55.649Z,16.02
2022-09-24T11:01:14.215Z,16.18
2022-09-24T11:05:22.394Z,15.73
2022-09-24T11:09:26.451Z,15.92
2022-09-24T11:13:40.367Z,15.91
2022-09-24T11:18:02.996Z,16.15
2022-09-24T11:22:21.175Z,16.22
2022-09-24T11:26:31.410Z,16.78
2022-09-24T11:31:02.598Z,17.08
2022-09-24T11:35:25.781Z,17.72
2022-09-24T11:39:39.138Z,17.43
2022-09-24T11:43:49.805Z,17.61
2022-09-24T11:48:09.521Z,17.61
2022-09-24T11:52:29.734Z,17.08
2022-09-24T11:56:36.955Z,17.44
2022-09-24T12:00:46.965Z,16.86
2022-09-24T12:04:55.172Z,17.45
2022-09-24T12:09:17.983Z,16.93
2022-09-24T12:13:27.524Z,17.25
2022-09-24T12:17:36.189Z,17.08
2022-09-24T12:21:41.628Z,17.42
2022-09-24T12:25:46.993Z,16.83
2022-09-24T12:30:39.726Z,16.99
2022-09-24T12:34:54.699Z,17.24
2022-09-24T12:39:12.889Z,17.58
2022-09-24T12:43:25.243Z,17.76
2022-09-24T12:47:29.228Z,17.51
2022-09-24T12:51:36.659Z,17.53
2022-09-24T12:55:45.453Z,17.73
2022-09-24T12:59:52.851Z,17.32
2022-09-24T13:04:15.787Z,17.81
2022-09-24T13:08:17.119Z,18.27
2022-09-24T13:12:21.653Z,18.28
2022-09-24T13:16:23.382Z,17.33
2022-09-24T13:20:28.434Z,16.97
2022-09-24T13:25:13.046Z,16.99
2022-09-24T13:29:25.094Z,17.38
2022-09-24T13:33:33.686Z,17.39
2022-09-24T13:37:41.372Z,18.15
2022-09-24T13:41:53.296Z,18.22
2022-09-24T13:45:54.738Z,18.89
2022-09-24T13:50:14.280Z,18.45
2022-09-24T13:54:24.893Z,18.81
2022-09-24T13:58:30.272Z,18.84
2022-09-24T14:02:36.528Z,18.84
2022-09-24T14:06:42.538Z,18.53
2022-09-24T14:10:48.376Z,18.30
2022-09-24T14:14:58.144Z,18.42
2022-09-24T14:19:05.073Z,17.73
2022-09-24T14:23:07.174Z,18.27
2022-09-24T14:27:19.465Z,17.63
2022-09-24T14:31:21.316Z,17.18
2022-09-24T14:35:33.067Z,17.61
2022-09-24T14:39:40.508Z,17.40
2022-09-24T14:43:46.736Z,17.41
2022-09-24T14:47:59.096Z,17.46
2022-09-24T14:52:02.843Z,17.09
2022-09-24T14:56:20.485Z,17.09
2022-09-24T15:00:30.335Z,17.06
2022-09-24T15:04:31.816Z,16.85
2022-09-24T15:08:33.383Z,16.77
2022-09-24T15:12:37.622Z,16.78
2022-09-24T15:16:39.443Z,16.54
2022-09-24T15:20:40.838Z,16.38
2022-09-24T15:24:42.262Z,16.34
2022-09-24T15:28:43.654Z,15.88
2022-09-24T15:32:45.527Z,16.18
2022-09-24T15:36:48.422Z,16.29
2022-09-24T15:40:51.477Z,16.15
2022-09-24T15:44:56.465Z,15.96
2022-09-24T15:48:57.882Z,15.88
2022-09-24T15:53:01.754Z,15.66
2022-09-24T15:57:03.412Z,15.94
2022-09-24T16:01:05.216Z,16.08
2022-09-24T16:05:12.477Z,15.81
2022-09-24T16:09:13.865Z,16.01
2022-09-24T16:13:16.360Z,15.98
2022-09-24T16:17:17.781Z,15.96
2022-09-24T16:21:19.305Z,15.90
2022-09-24T16:25:21.805Z,15.37
2022-09-24T16:29:23.263Z,15.47
2022-09-24T16:33:25.590Z,15.42
2022-09-24T16:37:27.000Z,15.31
2022-09-24T16:41:34.155Z,14.89
2022-09-24T16:45:35.800Z,14.36
2022-09-24T16:49:37.266Z,14.54
2022-09-24T16:53:38.853Z,14.49
2022-09-24T16:57:40.296Z,14.28
2022-09-24T17:01:42.422Z,14.49
2022-09-24T17:05:43.924Z,14.59
2022-09-24T17:10:03.922Z,14.45
2022-09-24T17:14:06.924Z,13.90
2022-09-24T17:18:08.347Z,13.81
2022-09-24T17:22:09.768Z,14.13
2022-09-24T17:26:13.682Z,14.24
2022-09-24T17:30:16.014Z,14.35
2022-09-24T17:34:17.534Z,14.43
2022-09-24T17:38:18.944Z,14.38
2022-09-24T17:42:20.446Z,14.44
2022-09-24T17:46:22.787Z,14.36
2022-09-24T17:50:24.549Z,14.38
2022-09-24T17:54:26.788Z,14.27
2022-09-24T17:58:28.680Z,14.13
2022-09-24T18:02:30.253Z,14.21
2022-09-24T18:06:33.709Z,14.33
2022-09-24T18:10:35.242Z,14.28
2022-09-24T18:14:38.065Z,14.15
2022-09-24T18:18:40.443Z,14.09
2022-09-24T18:22:41.875Z,14.17
2022-09-24T18:26:43.532Z,14.09
2022-09-24T18:30:44.950Z,14.05
2022-09-24T18:34:46.429Z,13.83
2022-09-24T18:38:48.309Z,13.94
2022-09-24T18:42:50.411Z,13.99
2022-09-24T18:46:51.876Z,13.93
2022-09-24T18:50:53.325Z,13.96
2022-09-24T18:54:54.812Z,13.92
2022-09-24T18:58:57.150Z,13.94
2022-09-24T19:02:58.721Z,13.95
2022-09-24T19:07:00.393Z,13.70
2022-09-24T19:11:10.974Z,13.80
2022-09-24T19:15:12.348Z,13.74
2022-09-24T19:19:13.981Z,13.87
2022-09-24T19:23:15.911Z,13.84
2022-09-24T19:27:17.377Z,13.66
2022-09-24T19:31:22.099Z,13.75
2022-09-24T19:35:23.710Z,13.72
2022-09-24T19:39:25.114Z,13.78
2022-09-24T19:43:26.822Z,13.14
2022-09-24T19:47:28.454Z,13.51
2022-09-24T19:51:32.489Z,13.44
2022-09-24T19:55:34.983Z,13.09
2022-09-24T19:59:36.835Z,13.23
2022-09-24T20:03:39.317Z,13.30
2022-09-24T20:07:41.949Z,12.92
2022-09-24T20:11:43.449Z,13.24
2022-09-24T20:15:44.964Z,13.05
2022-09-24T20:19:46.393Z,13.04
2022-09-24T20:23:48.697Z,12.87
2022-09-24T20:27:53.199Z,12.81
2022-09-24T20:31:56.114Z,13.07
2022-09-24T20:36:02.281Z,13.13
2022-09-24T20:40:05.495Z,12.95
2022-09-24T20:44:06.857Z,13.07
2022-09-24T20:48:08.243Z,13.12
2022-09-24T20:52:09.648Z,13.04
2022-09-24T20:56:11.288Z,13.01
2022-09-24T21:00:15.110Z,13.03
2022-09-24T21:04:17.493Z,12.91
2022-09-24T21:08:19.093Z,12.92
2022-09-24T21:12:22.300Z,12.96
2022-09-24T21:16:26.397Z,12.52
2022-09-24T21:20:27.843Z,12.60
2022-09-24T21:24:31.641Z,12.70
2022-09-24T21:28:33.270Z,12.98
2022-09-24T21:32:35.710Z,12.85
2022-09-24T21:36:43.953Z,12.73
2022-09-24T21:40:54.794Z,12.95
2022-09-24T21:44:57.222Z,13.00
2022-09-24T21:49:00.538Z,12.70
2022-09-24T21:53:02.331Z,12.65
2022-09-24T21:57:03.821Z,12.82
2022-09-24T22:01:26.931Z,12.79
2022-09-24T22:05:28.356Z,12.55
2022-09-24T22:09:31.887Z,12.59
2022-09-24T22:13:34.477Z,12.68
2022-09-24T22:17:35.885Z,12.34
2022-09-24T22:21:37.413Z,12.11
2022-09-24T22:25:38.952Z,12.37
2022-09-24T22:29:40.848Z,12.27
2022-09-24T22:34:01.364Z,12.62
2022-09-24T22:38:02.765Z,12.49
2022-09-24T22:42:05.159Z,12.37
2022-09-24T22:46:10.870Z,12.29
2022-09-24T22:50:12.307Z,12.20
2022-09-24T22:54:13.797Z,12.41
2022-09-24T22:58:15.735Z,12.36
2022-09-24T23:02:17.118Z,12.53
2022-09-24T23:06:20.728Z,12.55
2022-09-24T23:10:22.336Z,12.23
2022-09-24T23:14:24.034Z,12.25
2022-09-24T23:18:25.387Z,12.27
2022-09-24T23:22:26.775Z,12.45
2022-09-24T23:26:29.472Z,12.25
2022-09-24T23:30:31.324Z,12.19
2022-09-24T23:34:32.867Z,12.21
2022-09-24T23:38:34.947Z,12.51
2022-09-24T23:42:36.475Z,12.35
2022-09-24T23:46:38.118Z,12.38
2022-09-24T23:50:40.004Z,12.44
2022-09-24T23:54:41.409Z,12.54
2022-09-24T23:58:42.837Z,12.52
